sensor_id;sensor_type;location;lat;lon;timestamp;temperature;humidity
4874;DHT22;2451;49.970;9.068;2023-02-15T00:01:40;2.20;99.90
4874;DHT22;2451;49.970;9.068;2023-02-15T00:04:07;2.20;99.90
4874;DHT22;2451;49.970;9.068;2023-02-15T00:06:33;2.20;99.90
4874;DHT22;2451;49.970;9.068;2023-02-15T00:08:59;2.20;99.90
4874;DHT22;2451;49.970;9.068;2023-02-15T00:11:25;2.10;99.90
4874;DHT22;2451;49.970;9.068;2023-02-15T00:14:22;2.10;99.90
4874;DHT22;2451;49.970;9.068;2023-02-15T00:16:49;2.20;99.90
4874;DHT22;2451;49.970;9.068;2023-02-15T00:19:16;2.10;99.90
4874;DHT22;2451;49.970;9.068;2023-02-15T00:21:42;2.10;99.90
4874;DHT22;2451;49.970;9.068;2023-02-15T00:24:10;2.20;99.90
4874;DHT22;2451;49.970;9.068;2023-02-15T00:26:39;2.20;99.90
4874;DHT22;2451;49.970;9.068;2023-02-15T00:29:05;2.20;99.90
4874;DHT22;2451;49.970;9.068;2023-02-15T00:31:32;2.10;99.90
4874;DHT22;2451;49.970;9.068;2023-02-15T00:34:12;2.20;99.90
4874;DHT22;2451;49.970;9.068;2023-02-15T00:36:38;2.20;99.90
4874;DHT22;2451;49.970;9.068;2023-02-15T00:39:04;2.20;99.90
4874;DHT22;2451;49.970;9.068;2023-02-15T00:41:33;2.20;99.90
4874;DHT22;2451;49.970;9.068;2023-02-15T00:43:59;2.20;99.90
4874;DHT22;2451;49.970;9.068;2023-02-15T00:46:25;2.10;99.90
4874;DHT22;2451;49.970;9.068;2023-02-15T00:48:50;2.20;99.90
4874;DHT22;2451;49.970;9.068;2023-02-15T00:51:16;2.20;99.90
4874;DHT22;2451;49.970;9.068;2023-02-15T00:53:43;2.20;99.90
4874;DHT22;2451;49.970;9.068;2023-02-15T00:56:09;2.20;99.90
4874;DHT22;2451;49.970;9.068;2023-02-15T00:58:35;2.10;99.90
4874;DHT22;2451;49.970;9.068;2023-02-15T01:01:07;2.20;99.90
4874;DHT22;2451;49.970;9.068;2023-02-15T01:03:33;2.20;99.90
4874;DHT22;2451;49.970;9.068;2023-02-15T01:05:59;2.20;99.90
4874;DHT22;2451;49.970;9.068;2023-02-15T01:08:25;2.20;99.90
4874;DHT22;2451;49.970;9.068;2023-02-15T01:10:51;2.20;99.90
4874;DHT22;2451;49.970;9.068;2023-02-15T01:13:16;2.20;99.90
4874;DHT22;2451;49.970;9.068;2023-02-15T01:15:43;2.20;99.90
4874;DHT22;2451;49.970;9.068;2023-02-15T01:18:10;2.20;99.90
4874;DHT22;2451;49.970;9.068;2023-02-15T01:20:37;2.20;99.90
4874;DHT22;2451;49.970;9.068;2023-02-15T01:23:04;2.20;99.90
4874;DHT22;2451;49.970;9.068;2023-02-15T01:25:30;2.20;99.90
4874;DHT22;2451;49.970;9.068;2023-02-15T01:27:55;2.20;99.90
4874;DHT22;2451;49.970;9.068;2023-02-15T01:30:21;2.20;99.90
4874;DHT22;2451;49.970;9.068;2023-02-15T01:32:47;2.20;99.90
4874;DHT22;2451;49.970;9.068;2023-02-15T01:35:12;2.20;99.90
4874;DHT22;2451;49.970;9.068;2023-02-15T01:37:38;2.20;99.90
4874;DHT22;2451;49.970;9.068;2023-02-15T01:40:06;2.10;99.90
4874;DHT22;2451;49.970;9.068;2023-02-15T01:42:32;2.10;99.90
4874;DHT22;2451;49.970;9.068;2023-02-15T01:45:02;2.10;99.90
4874;DHT22;2451;49.970;9.068;2023-02-15T01:47:57;2.10;99.90
4874;DHT22;2451;49.970;9.068;2023-02-15T01:55:27;2.00;99.90
4874;DHT22;2451;49.970;9.068;2023-02-15T01:57:54;2.00;99.90
4874;DHT22;2451;49.970;9.068;2023-02-15T02:00:20;2.00;99.90
4874;DHT22;2451;49.970;9.068;2023-02-15T02:02:50;2.00;99.90
4874;DHT22;2451;49.970;9.068;2023-02-15T02:05:16;2.00;99.90
4874;DHT22;2451;49.970;9.068;2023-02-15T02:07:44;2.00;99.90
4874;DHT22;2451;49.970;9.068;2023-02-15T02:10:14;2.10;99.90
4874;DHT22;2451;49.970;9.068;2023-02-15T02:12:42;2.10;99.90
4874;DHT22;2451;49.970;9.068;2023-02-15T02:15:09;2.00;99.90
4874;DHT22;2451;49.970;9.068;2023-02-15T02:26:44;2.10;99.90
4874;DHT22;2451;49.970;9.068;2023-02-15T02:28:53;2.20;99.90
4874;DHT22;2451;49.970;9.068;2023-02-15T02:32:06;2.10;99.90
4874;DHT22;2451;49.970;9.068;2023-02-15T02:34:43;2.10;99.90
4874;DHT22;2451;49.970;9.068;2023-02-15T02:37:16;2.10;99.90
4874;DHT22;2451;49.970;9.068;2023-02-15T02:42:21;2.00;99.90
4874;DHT22;2451;49.970;9.068;2023-02-15T02:45:02;2.10;99.90
4874;DHT22;2451;49.970;9.068;2023-02-15T02:47:47;2.10;99.90
4874;DHT22;2451;49.970;9.068;2023-02-15T02:50:21;2.10;99.90
4874;DHT22;2451;49.970;9.068;2023-02-15T02:52:49;2.10;99.90
4874;DHT22;2451;49.970;9.068;2023-02-15T02:55:19;2.10;99.90
4874;DHT22;2451;49.970;9.068;2023-02-15T03:00:24;2.10;99.90
4874;DHT22;2451;49.970;9.068;2023-02-15T03:02:56;2.10;99.90
4874;DHT22;2451;49.970;9.068;2023-02-15T03:05:27;2.10;99.90
4874;DHT22;2451;49.970;9.068;2023-02-15T03:07:55;2.10;99.90
4874;DHT22;2451;49.970;9.068;2023-02-15T03:10:23;2.10;99.90
4874;DHT22;2451;49.970;9.068;2023-02-15T03:12:50;2.00;99.90
4874;DHT22;2451;49.970;9.068;2023-02-15T03:15:20;2.00;99.90
4874;DHT22;2451;49.970;9.068;2023-02-15T03:17:53;2.00;99.90
4874;DHT22;2451;49.970;9.068;2023-02-15T03:20:26;2.00;99.90
4874;DHT22;2451;49.970;9.068;2023-02-15T03:22:56;2.00;99.90
4874;DHT22;2451;49.970;9.068;2023-02-15T03:25:28;2.00;99.90
4874;DHT22;2451;49.970;9.068;2023-02-15T03:28:05;2.00;99.90
4874;DHT22;2451;49.970;9.068;2023-02-15T03:30:32;2.00;99.90
4874;DHT22;2451;49.970;9.068;2023-02-15T03:33:00;2.00;99.90
4874;DHT22;2451;49.970;9.068;2023-02-15T03:36:09;2.00;99.90
4874;DHT22;2451;49.970;9.068;2023-02-15T03:38:52;2.00;99.90
4874;DHT22;2451;49.970;9.068;2023-02-15T03:41:19;2.00;99.90
4874;DHT22;2451;49.970;9.068;2023-02-15T03:43:57;1.90;99.90
4874;DHT22;2451;49.970;9.068;2023-02-15T03:48:57;1.90;99.90
4874;DHT22;2451;49.970;9.068;2023-02-15T03:51:28;2.00;99.90
4874;DHT22;2451;49.970;9.068;2023-02-15T03:54:24;2.00;99.90
4874;DHT22;2451;49.970;9.068;2023-02-15T03:57:25;2.00;99.90
4874;DHT22;2451;49.970;9.068;2023-02-15T04:05:30;2.00;99.90
4874;DHT22;2451;49.970;9.068;2023-02-15T04:07:56;2.10;99.90
4874;DHT22;2451;49.970;9.068;2023-02-15T04:10:21;2.10;99.90
4874;DHT22;2451;49.970;9.068;2023-02-15T04:13:06;2.00;99.90
4874;DHT22;2451;49.970;9.068;2023-02-15T04:15:31;2.00;99.90
4874;DHT22;2451;49.970;9.068;2023-02-15T04:18:15;2.00;99.90
4874;DHT22;2451;49.970;9.068;2023-02-15T04:20:44;1.90;99.90
4874;DHT22;2451;49.970;9.068;2023-02-15T04:23:28;1.90;99.90
4874;DHT22;2451;49.970;9.068;2023-02-15T04:26:12;1.90;99.90
4874;DHT22;2451;49.970;9.068;2023-02-15T04:28:37;1.90;99.90
4874;DHT22;2451;49.970;9.068;2023-02-15T04:31:03;1.90;99.90
4874;DHT22;2451;49.970;9.068;2023-02-15T04:33:28;1.90;99.90
4874;DHT22;2451;49.970;9.068;2023-02-15T04:35:54;1.90;99.90
4874;DHT22;2451;49.970;9.068;2023-02-15T04:38:20;1.90;99.90
4874;DHT22;2451;49.970;9.068;2023-02-15T04:40:50;1.90;99.90
4874;DHT22;2451;49.970;9.068;2023-02-15T04:43:16;1.90;99.90
4874;DHT22;2451;49.970;9.068;2023-02-15T04:45:50;1.90;99.90
4874;DHT22;2451;49.970;9.068;2023-02-15T04:48:17;1.90;99.90
4874;DHT22;2451;49.970;9.068;2023-02-15T04:50:43;1.80;99.90
4874;DHT22;2451;49.970;9.068;2023-02-15T04:53:09;1.90;99.90
4874;DHT22;2451;49.970;9.068;2023-02-15T04:55:34;1.90;99.90
4874;DHT22;2451;49.970;9.068;2023-02-15T04:58:00;1.90;99.90
4874;DHT22;2451;49.970;9.068;2023-02-15T05:00:25;1.90;99.90
4874;DHT22;2451;49.970;9.068;2023-02-15T05:02:51;1.90;99.90
4874;DHT22;2451;49.970;9.068;2023-02-15T05:05:16;1.90;99.90
4874;DHT22;2451;49.970;9.068;2023-02-15T05:07:42;1.90;99.90
4874;DHT22;2451;49.970;9.068;2023-02-15T05:10:08;1.90;99.90
4874;DHT22;2451;49.970;9.068;2023-02-15T05:12:33;1.90;99.90
4874;DHT22;2451;49.970;9.068;2023-02-15T05:14:59;1.90;99.90
4874;DHT22;2451;49.970;9.068;2023-02-15T05:17:24;1.90;99.90
4874;DHT22;2451;49.970;9.068;2023-02-15T05:19:50;1.90;99.90
4874;DHT22;2451;49.970;9.068;2023-02-15T05:22:15;2.00;99.90
4874;DHT22;2451;49.970;9.068;2023-02-15T05:24:41;2.00;99.90
4874;DHT22;2451;49.970;9.068;2023-02-15T05:27:25;2.00;99.90
4874;DHT22;2451;49.970;9.068;2023-02-15T05:30:10;1.90;99.90
4874;DHT22;2451;49.970;9.068;2023-02-15T05:32:37;1.90;99.90
4874;DHT22;2451;49.970;9.068;2023-02-15T05:35:04;1.90;99.90
4874;DHT22;2451;49.970;9.068;2023-02-15T05:37:30;1.90;99.90
4874;DHT22;2451;49.970;9.068;2023-02-15T05:39:55;1.90;99.90
4874;DHT22;2451;49.970;9.068;2023-02-15T05:42:21;1.80;99.90
4874;DHT22;2451;49.970;9.068;2023-02-15T05:44:46;1.80;99.90
4874;DHT22;2451;49.970;9.068;2023-02-15T05:47:12;1.80;99.90
4874;DHT22;2451;49.970;9.068;2023-02-15T05:49:37;1.80;99.90
4874;DHT22;2451;49.970;9.068;2023-02-15T05:52:03;1.70;99.90
4874;DHT22;2451;49.970;9.068;2023-02-15T05:54:28;1.70;99.90
4874;DHT22;2451;49.970;9.068;2023-02-15T05:56:54;1.70;99.90
4874;DHT22;2451;49.970;9.068;2023-02-15T05:59:19;1.70;99.90
4874;DHT22;2451;49.970;9.068;2023-02-15T06:01:45;1.70;99.90
4874;DHT22;2451;49.970;9.068;2023-02-15T06:04:10;1.70;99.90
4874;DHT22;2451;49.970;9.068;2023-02-15T06:06:36;1.70;99.90
4874;DHT22;2451;49.970;9.068;2023-02-15T06:09:02;1.70;99.90
4874;DHT22;2451;49.970;9.068;2023-02-15T06:11:27;1.70;99.90
4874;DHT22;2451;49.970;9.068;2023-02-15T06:13:53;1.60;99.90
4874;DHT22;2451;49.970;9.068;2023-02-15T06:16:18;1.60;99.90
4874;DHT22;2451;49.970;9.068;2023-02-15T06:18:44;1.70;99.90
4874;DHT22;2451;49.970;9.068;2023-02-15T06:21:09;1.70;99.90
4874;DHT22;2451;49.970;9.068;2023-02-15T06:23:35;1.70;99.90
4874;DHT22;2451;49.970;9.068;2023-02-15T06:26:00;1.70;99.90
4874;DHT22;2451;49.970;9.068;2023-02-15T06:28:26;1.70;99.90
4874;DHT22;2451;49.970;9.068;2023-02-15T06:30:52;1.70;99.90
4874;DHT22;2451;49.970;9.068;2023-02-15T06:33:17;1.70;99.90
4874;DHT22;2451;49.970;9.068;2023-02-15T06:35:44;1.70;99.90
4874;DHT22;2451;49.970;9.068;2023-02-15T06:38:09;1.70;99.90
4874;DHT22;2451;49.970;9.068;2023-02-15T06:40:35;1.80;99.90
4874;DHT22;2451;49.970;9.068;2023-02-15T06:43:00;1.80;99.90
4874;DHT22;2451;49.970;9.068;2023-02-15T06:45:26;1.80;99.90
4874;DHT22;2451;49.970;9.068;2023-02-15T06:47:51;1.80;99.90
4874;DHT22;2451;49.970;9.068;2023-02-15T06:50:17;1.80;99.90
4874;DHT22;2451;49.970;9.068;2023-02-15T06:52:43;1.80;99.90
4874;DHT22;2451;49.970;9.068;2023-02-15T06:55:08;1.80;99.90
4874;DHT22;2451;49.970;9.068;2023-02-15T06:57:34;1.80;99.90
4874;DHT22;2451;49.970;9.068;2023-02-15T06:59:59;1.80;99.90
4874;DHT22;2451;49.970;9.068;2023-02-15T07:02:25;1.80;99.90
4874;DHT22;2451;49.970;9.068;2023-02-15T07:04:51;1.80;99.90
4874;DHT22;2451;49.970;9.068;2023-02-15T07:07:16;1.90;99.90
4874;DHT22;2451;49.970;9.068;2023-02-15T07:09:42;1.90;99.90
4874;DHT22;2451;49.970;9.068;2023-02-15T07:12:07;1.90;99.90
4874;DHT22;2451;49.970;9.068;2023-02-15T07:14:52;1.80;99.90
4874;DHT22;2451;49.970;9.068;2023-02-15T07:17:18;1.90;99.90
4874;DHT22;2451;49.970;9.068;2023-02-15T07:19:43;1.90;99.90
4874;DHT22;2451;49.970;9.068;2023-02-15T07:22:09;1.90;99.90
4874;DHT22;2451;49.970;9.068;2023-02-15T07:24:35;1.90;99.90
4874;DHT22;2451;49.970;9.068;2023-02-15T07:27:00;2.00;99.90
4874;DHT22;2451;49.970;9.068;2023-02-15T07:29:26;2.00;99.90
4874;DHT22;2451;49.970;9.068;2023-02-15T07:31:51;2.10;99.90
4874;DHT22;2451;49.970;9.068;2023-02-15T07:34:17;2.10;99.90
4874;DHT22;2451;49.970;9.068;2023-02-15T07:36:42;2.10;99.90
4874;DHT22;2451;49.970;9.068;2023-02-15T07:39:10;2.20;99.90
4874;DHT22;2451;49.970;9.068;2023-02-15T07:41:36;2.30;99.90
4874;DHT22;2451;49.970;9.068;2023-02-15T07:44:01;2.40;99.90
4874;DHT22;2451;49.970;9.068;2023-02-15T07:46:27;2.40;99.90
4874;DHT22;2451;49.970;9.068;2023-02-15T07:48:53;2.50;99.90
4874;DHT22;2451;49.970;9.068;2023-02-15T07:51:18;2.50;99.90
4874;DHT22;2451;49.970;9.068;2023-02-15T07:53:45;2.50;99.90
4874;DHT22;2451;49.970;9.068;2023-02-15T07:56:13;2.50;99.90
4874;DHT22;2451;49.970;9.068;2023-02-15T07:58:39;2.50;99.90
4874;DHT22;2451;49.970;9.068;2023-02-15T08:01:29;2.50;99.90
4874;DHT22;2451;49.970;9.068;2023-02-15T08:03:56;2.50;99.90
4874;DHT22;2451;49.970;9.068;2023-02-15T08:06:23;2.50;99.90
4874;DHT22;2451;49.970;9.068;2023-02-15T08:08:49;2.50;99.90
4874;DHT22;2451;49.970;9.068;2023-02-15T08:11:20;2.40;99.90
4874;DHT22;2451;49.970;9.068;2023-02-15T08:14:07;2.40;99.90
4874;DHT22;2451;49.970;9.068;2023-02-15T08:19:09;2.40;99.90
4874;DHT22;2451;49.970;9.068;2023-02-15T08:21:37;2.30;99.90
4874;DHT22;2451;49.970;9.068;2023-02-15T08:24:04;2.30;99.90
4874;DHT22;2451;49.970;9.068;2023-02-15T08:26:30;2.30;99.90
4874;DHT22;2451;49.970;9.068;2023-02-15T08:28:57;2.30;99.90
4874;DHT22;2451;49.970;9.068;2023-02-15T08:31:23;2.20;99.90
4874;DHT22;2451;49.970;9.068;2023-02-15T08:33:50;2.30;99.90
4874;DHT22;2451;49.970;9.068;2023-02-15T08:36:18;2.20;99.90
4874;DHT22;2451;49.970;9.068;2023-02-15T08:38:45;2.20;99.90
4874;DHT22;2451;49.970;9.068;2023-02-15T08:43:42;2.30;99.90
4874;DHT22;2451;49.970;9.068;2023-02-15T08:46:11;2.30;99.90
4874;DHT22;2451;49.970;9.068;2023-02-15T08:48:37;2.30;99.90
4874;DHT22;2451;49.970;9.068;2023-02-15T08:51:08;2.30;99.90
4874;DHT22;2451;49.970;9.068;2023-02-15T08:53:39;2.30;99.90
4874;DHT22;2451;49.970;9.068;2023-02-15T08:56:05;2.30;99.90
4874;DHT22;2451;49.970;9.068;2023-02-15T08:58:31;2.40;99.90
4874;DHT22;2451;49.970;9.068;2023-02-15T09:00:57;2.30;99.90
4874;DHT22;2451;49.970;9.068;2023-02-15T09:03:23;2.40;99.90
4874;DHT22;2451;49.970;9.068;2023-02-15T09:05:49;2.40;99.90
4874;DHT22;2451;49.970;9.068;2023-02-15T09:08:14;2.40;99.90
4874;DHT22;2451;49.970;9.068;2023-02-15T09:10:40;2.40;99.90
4874;DHT22;2451;49.970;9.068;2023-02-15T09:13:06;2.40;99.90
4874;DHT22;2451;49.970;9.068;2023-02-15T09:15:31;2.40;99.90
4874;DHT22;2451;49.970;9.068;2023-02-15T09:17:57;2.40;99.90
4874;DHT22;2451;49.970;9.068;2023-02-15T09:20:26;2.40;99.90
4874;DHT22;2451;49.970;9.068;2023-02-15T09:22:53;2.40;99.90
4874;DHT22;2451;49.970;9.068;2023-02-15T09:25:19;2.50;99.90
4874;DHT22;2451;49.970;9.068;2023-02-15T09:27:45;2.50;99.90
4874;DHT22;2451;49.970;9.068;2023-02-15T09:30:11;2.50;99.90
4874;DHT22;2451;49.970;9.068;2023-02-15T09:32:37;2.50;99.90
4874;DHT22;2451;49.970;9.068;2023-02-15T09:35:02;2.40;99.90
4874;DHT22;2451;49.970;9.068;2023-02-15T09:37:29;2.40;99.90
4874;DHT22;2451;49.970;9.068;2023-02-15T09:39:55;2.50;99.90
4874;DHT22;2451;49.970;9.068;2023-02-15T09:45:30;2.50;99.90
4874;DHT22;2451;49.970;9.068;2023-02-15T09:56:13;2.40;99.90
4874;DHT22;2451;49.970;9.068;2023-02-15T09:58:51;2.40;99.90
4874;DHT22;2451;49.970;9.068;2023-02-15T10:01:36;2.40;99.90
4874;DHT22;2451;49.970;9.068;2023-02-15T10:04:25;2.50;99.90
4874;DHT22;2451;49.970;9.068;2023-02-15T10:13:00;2.50;99.90
4874;DHT22;2451;49.970;9.068;2023-02-15T10:15:57;2.50;99.90
4874;DHT22;2451;49.970;9.068;2023-02-15T10:21:23;2.60;99.90
4874;DHT22;2451;49.970;9.068;2023-02-15T10:26:45;2.60;99.90
4874;DHT22;2451;49.970;9.068;2023-02-15T10:29:38;2.60;99.90
4874;DHT22;2451;49.970;9.068;2023-02-15T10:32:23;2.60;99.90
4874;DHT22;2451;49.970;9.068;2023-02-15T10:35:00;2.60;99.90
4874;DHT22;2451;49.970;9.068;2023-02-15T10:37:49;2.70;99.90
4874;DHT22;2451;49.970;9.068;2023-02-15T10:51:00;2.90;99.90
4874;DHT22;2451;49.970;9.068;2023-02-15T11:01:51;3.10;99.90
4874;DHT22;2451;49.970;9.068;2023-02-15T11:07:25;3.20;99.90
4874;DHT22;2451;49.970;9.068;2023-02-15T11:12:55;3.30;99.90
4874;DHT22;2451;49.970;9.068;2023-02-15T11:15:34;3.30;99.90
4874;DHT22;2451;49.970;9.068;2023-02-15T11:21:11;3.30;99.90
4874;DHT22;2451;49.970;9.068;2023-02-15T11:23:43;3.40;99.90
4874;DHT22;2451;49.970;9.068;2023-02-15T11:26:18;3.50;99.90
4874;DHT22;2451;49.970;9.068;2023-02-15T11:28:49;3.50;99.90
4874;DHT22;2451;49.970;9.068;2023-02-15T11:31:19;3.40;99.90
4874;DHT22;2451;49.970;9.068;2023-02-15T11:33:57;3.40;99.90
4874;DHT22;2451;49.970;9.068;2023-02-15T11:36:35;3.40;99.90
4874;DHT22;2451;49.970;9.068;2023-02-15T11:39:09;3.50;99.90
4874;DHT22;2451;49.970;9.068;2023-02-15T11:41:40;3.50;99.90
4874;DHT22;2451;49.970;9.068;2023-02-15T11:44:25;3.50;99.90
4874;DHT22;2451;49.970;9.068;2023-02-15T11:46:52;3.60;99.90
4874;DHT22;2451;49.970;9.068;2023-02-15T11:49:21;3.50;99.90
4874;DHT22;2451;49.970;9.068;2023-02-15T11:51:48;3.40;99.90
4874;DHT22;2451;49.970;9.068;2023-02-15T11:54:18;3.50;99.90
4874;DHT22;2451;49.970;9.068;2023-02-15T11:56:44;3.60;99.90
4874;DHT22;2451;49.970;9.068;2023-02-15T11:59:14;3.60;99.90
4874;DHT22;2451;49.970;9.068;2023-02-15T12:01:43;3.70;99.90
4874;DHT22;2451;49.970;9.068;2023-02-15T12:04:25;3.80;99.90
4874;DHT22;2451;49.970;9.068;2023-02-15T12:12:23;4.10;99.90
4874;DHT22;2451;49.970;9.068;2023-02-15T12:14:53;4.10;99.90
4874;DHT22;2451;49.970;9.068;2023-02-15T12:17:34;4.10;99.90
4874;DHT22;2451;49.970;9.068;2023-02-15T12:22:46;4.10;99.90
4874;DHT22;2451;49.970;9.068;2023-02-15T12:25:43;4.10;99.90
4874;DHT22;2451;49.970;9.068;2023-02-15T12:28:41;4.10;99.90
4874;DHT22;2451;49.970;9.068;2023-02-15T12:31:23;4.10;99.90
4874;DHT22;2451;49.970;9.068;2023-02-15T12:33:52;4.20;99.90
4874;DHT22;2451;49.970;9.068;2023-02-15T12:36:21;4.20;99.90
4874;DHT22;2451;49.970;9.068;2023-02-15T12:39:20;4.10;99.90
4874;DHT22;2451;49.970;9.068;2023-02-15T12:41:57;4.20;99.90
4874;DHT22;2451;49.970;9.068;2023-02-15T12:44:30;4.30;99.90
4874;DHT22;2451;49.970;9.068;2023-02-15T12:47:18;4.50;99.90
4874;DHT22;2451;49.970;9.068;2023-02-15T12:49:45;4.60;99.90
4874;DHT22;2451;49.970;9.068;2023-02-15T12:52:28;4.80;99.90
4874;DHT22;2451;49.970;9.068;2023-02-15T12:54:54;5.60;99.90
4874;DHT22;2451;49.970;9.068;2023-02-15T12:57:27;6.30;99.90
4874;DHT22;2451;49.970;9.068;2023-02-15T12:59:59;7.10;99.90
4874;DHT22;2451;49.970;9.068;2023-02-15T13:02:41;7.20;99.90
4874;DHT22;2451;49.970;9.068;2023-02-15T13:08:26;8.00;99.90
4874;DHT22;2451;49.970;9.068;2023-02-15T13:10:54;8.60;99.90
4874;DHT22;2451;49.970;9.068;2023-02-15T13:13:23;9.00;99.90
4874;DHT22;2451;49.970;9.068;2023-02-15T13:15:56;9.20;99.90
4874;DHT22;2451;49.970;9.068;2023-02-15T13:18:30;9.40;99.90
4874;DHT22;2451;49.970;9.068;2023-02-15T13:20:57;9.60;99.90
4874;DHT22;2451;49.970;9.068;2023-02-15T13:23:27;9.80;99.90
4874;DHT22;2451;49.970;9.068;2023-02-15T13:25:58;10.00;99.90
4874;DHT22;2451;49.970;9.068;2023-02-15T13:28:41;10.00;99.90
4874;DHT22;2451;49.970;9.068;2023-02-15T13:31:17;9.80;99.90
4874;DHT22;2451;49.970;9.068;2023-02-15T13:37:21;9.70;99.90
4874;DHT22;2451;49.970;9.068;2023-02-15T13:39:48;9.80;99.90
4874;DHT22;2451;49.970;9.068;2023-02-15T13:42:46;9.60;99.90
4874;DHT22;2451;49.970;9.068;2023-02-15T13:55:40;9.50;99.90
4874;DHT22;2451;49.970;9.068;2023-02-15T14:01:55;9.70;99.90
4874;DHT22;2451;49.970;9.068;2023-02-15T14:04:17;9.90;99.90
4874;DHT22;2451;49.970;9.068;2023-02-15T14:07:07;10.00;99.90
4874;DHT22;2451;49.970;9.068;2023-02-15T14:15:29;10.00;99.90
4874;DHT22;2451;49.970;9.068;2023-02-15T14:18:12;9.90;99.90
4874;DHT22;2451;49.970;9.068;2023-02-15T14:21:08;10.00;99.90
4874;DHT22;2451;49.970;9.068;2023-02-15T14:31:43;9.80;99.90
4874;DHT22;2451;49.970;9.068;2023-02-15T14:34:34;9.70;99.90
4874;DHT22;2451;49.970;9.068;2023-02-15T14:37:03;9.80;99.90
4874;DHT22;2451;49.970;9.068;2023-02-15T14:42:36;9.90;99.90
4874;DHT22;2451;49.970;9.068;2023-02-15T14:45:19;9.90;99.90
4874;DHT22;2451;49.970;9.068;2023-02-15T14:50:39;9.70;99.90
4874;DHT22;2451;49.970;9.068;2023-02-15T14:58:59;9.50;99.90
4874;DHT22;2451;49.970;9.068;2023-02-15T15:01:29;9.30;99.90
4874;DHT22;2451;49.970;9.068;2023-02-15T15:03:59;9.30;99.90
4874;DHT22;2451;49.970;9.068;2023-02-15T15:06:31;9.20;99.90
4874;DHT22;2451;49.970;9.068;2023-02-15T15:11:38;8.90;99.90
4874;DHT22;2451;49.970;9.068;2023-02-15T15:14:04;8.90;99.90
4874;DHT22;2451;49.970;9.068;2023-02-15T15:19:03;8.80;99.90
4874;DHT22;2451;49.970;9.068;2023-02-15T15:27:42;8.50;99.90
4874;DHT22;2451;49.970;9.068;2023-02-15T15:47:20;7.70;99.90
4874;DHT22;2451;49.970;9.068;2023-02-15T15:49:54;7.60;99.90
4874;DHT22;2451;49.970;9.068;2023-02-15T15:52:21;7.60;99.90
4874;DHT22;2451;49.970;9.068;2023-02-15T15:54:50;7.60;99.90
4874;DHT22;2451;49.970;9.068;2023-02-15T15:57:37;7.50;99.90
4874;DHT22;2451;49.970;9.068;2023-02-15T16:00:05;7.50;99.90
4874;DHT22;2451;49.970;9.068;2023-02-15T16:02:53;7.40;99.90
4874;DHT22;2451;49.970;9.068;2023-02-15T16:05:19;7.40;99.90
4874;DHT22;2451;49.970;9.068;2023-02-15T16:07:45;7.40;99.90
4874;DHT22;2451;49.970;9.068;2023-02-15T16:10:25;7.40;99.90
4874;DHT22;2451;49.970;9.068;2023-02-15T16:12:52;7.30;99.90
4874;DHT22;2451;49.970;9.068;2023-02-15T16:15:29;7.10;99.90
4874;DHT22;2451;49.970;9.068;2023-02-15T16:17:57;7.00;99.90
4874;DHT22;2451;49.970;9.068;2023-02-15T16:20:27;6.70;99.90
4874;DHT22;2451;49.970;9.068;2023-02-15T16:23:47;6.60;99.90
4874;DHT22;2451;49.970;9.068;2023-02-15T16:26:10;6.50;99.90
4874;DHT22;2451;49.970;9.068;2023-02-15T16:28:38;6.40;99.90
4874;DHT22;2451;49.970;9.068;2023-02-15T16:31:15;6.40;99.90
4874;DHT22;2451;49.970;9.068;2023-02-15T16:33:41;6.20;99.90
4874;DHT22;2451;49.970;9.068;2023-02-15T16:36:12;6.20;99.90
4874;DHT22;2451;49.970;9.068;2023-02-15T16:41:15;6.00;99.90
4874;DHT22;2451;49.970;9.068;2023-02-15T16:43:43;5.90;99.90
4874;DHT22;2451;49.970;9.068;2023-02-15T16:46:14;5.90;99.90
4874;DHT22;2451;49.970;9.068;2023-02-15T16:48:43;5.80;99.90
4874;DHT22;2451;49.970;9.068;2023-02-15T16:51:20;5.60;99.90
4874;DHT22;2451;49.970;9.068;2023-02-15T16:53:47;5.50;99.90
4874;DHT22;2451;49.970;9.068;2023-02-15T16:56:13;5.40;99.90
4874;DHT22;2451;49.970;9.068;2023-02-15T16:58:43;5.30;99.90
4874;DHT22;2451;49.970;9.068;2023-02-15T17:01:13;5.20;99.90
4874;DHT22;2451;49.970;9.068;2023-02-15T17:03:40;5.10;99.90
4874;DHT22;2451;49.970;9.068;2023-02-15T17:06:19;5.00;99.90
4874;DHT22;2451;49.970;9.068;2023-02-15T17:08:46;4.90;99.90
4874;DHT22;2451;49.970;9.068;2023-02-15T17:11:21;4.90;99.90
4874;DHT22;2451;49.970;9.068;2023-02-15T17:19:02;4.60;99.90
4874;DHT22;2451;49.970;9.068;2023-02-15T17:21:32;4.40;99.90
4874;DHT22;2451;49.970;9.068;2023-02-15T17:24:00;4.30;99.90
4874;DHT22;2451;49.970;9.068;2023-02-15T17:26:30;4.20;99.90
4874;DHT22;2451;49.970;9.068;2023-02-15T17:29:09;4.00;99.90
4874;DHT22;2451;49.970;9.068;2023-02-15T17:31:36;3.80;99.90
4874;DHT22;2451;49.970;9.068;2023-02-15T17:34:03;3.60;99.90
4874;DHT22;2451;49.970;9.068;2023-02-15T17:36:30;3.60;99.90
4874;DHT22;2451;49.970;9.068;2023-02-15T17:39:25;3.50;99.90
4874;DHT22;2451;49.970;9.068;2023-02-15T17:41:50;3.40;99.90
4874;DHT22;2451;49.970;9.068;2023-02-15T17:44:18;3.30;99.90
4874;DHT22;2451;49.970;9.068;2023-02-15T17:46:43;3.30;99.90
4874;DHT22;2451;49.970;9.068;2023-02-15T17:49:22;3.30;99.90
4874;DHT22;2451;49.970;9.068;2023-02-15T17:51:48;3.20;99.90
4874;DHT22;2451;49.970;9.068;2023-02-15T17:54:13;3.10;99.90
4874;DHT22;2451;49.970;9.068;2023-02-15T17:56:57;3.00;99.90
4874;DHT22;2451;49.970;9.068;2023-02-15T17:59:29;3.00;99.90
4874;DHT22;2451;49.970;9.068;2023-02-15T18:01:55;2.90;99.90
4874;DHT22;2451;49.970;9.068;2023-02-15T18:04:39;2.80;99.90
4874;DHT22;2451;49.970;9.068;2023-02-15T18:07:23;2.70;99.90
4874;DHT22;2451;49.970;9.068;2023-02-15T18:10:18;2.70;99.90
4874;DHT22;2451;49.970;9.068;2023-02-15T18:13:03;2.60;99.90
4874;DHT22;2451;49.970;9.068;2023-02-15T18:15:28;2.60;99.90
4874;DHT22;2451;49.970;9.068;2023-02-15T18:17:54;2.60;99.90
4874;DHT22;2451;49.970;9.068;2023-02-15T18:20:26;2.50;99.90
4874;DHT22;2451;49.970;9.068;2023-02-15T18:22:53;2.50;99.90
4874;DHT22;2451;49.970;9.068;2023-02-15T18:25:20;2.50;99.90
4874;DHT22;2451;49.970;9.068;2023-02-15T18:27:47;2.50;99.90
4874;DHT22;2451;49.970;9.068;2023-02-15T18:30:15;2.40;99.90
4874;DHT22;2451;49.970;9.068;2023-02-15T18:32:42;2.40;99.90
4874;DHT22;2451;49.970;9.068;2023-02-15T18:35:14;2.40;99.90
4874;DHT22;2451;49.970;9.068;2023-02-15T18:37:40;2.40;99.90
4874;DHT22;2451;49.970;9.068;2023-02-15T18:40:17;2.40;99.90
4874;DHT22;2451;49.970;9.068;2023-02-15T18:42:43;2.40;99.90
4874;DHT22;2451;49.970;9.068;2023-02-15T18:45:18;2.40;99.90
4874;DHT22;2451;49.970;9.068;2023-02-15T18:47:44;2.30;99.90
4874;DHT22;2451;49.970;9.068;2023-02-15T18:50:15;2.30;99.90
4874;DHT22;2451;49.970;9.068;2023-02-15T18:52:42;2.30;99.90
4874;DHT22;2451;49.970;9.068;2023-02-15T18:55:19;2.20;99.90
4874;DHT22;2451;49.970;9.068;2023-02-15T18:57:46;2.20;99.90
4874;DHT22;2451;49.970;9.068;2023-02-15T19:00:33;2.10;99.90
4874;DHT22;2451;49.970;9.068;2023-02-15T19:03:00;2.00;99.90
4874;DHT22;2451;49.970;9.068;2023-02-15T19:05:29;2.00;99.90
4874;DHT22;2451;49.970;9.068;2023-02-15T19:07:57;2.00;99.90
4874;DHT22;2451;49.970;9.068;2023-02-15T19:10:27;1.90;99.90
4874;DHT22;2451;49.970;9.068;2023-02-15T19:12:53;2.00;99.90
4874;DHT22;2451;49.970;9.068;2023-02-15T19:15:22;2.00;99.90
4874;DHT22;2451;49.970;9.068;2023-02-15T19:17:49;2.00;99.90
4874;DHT22;2451;49.970;9.068;2023-02-15T19:20:23;2.00;99.90
4874;DHT22;2451;49.970;9.068;2023-02-15T19:22:50;2.00;99.90
4874;DHT22;2451;49.970;9.068;2023-02-15T19:25:26;2.00;99.90
4874;DHT22;2451;49.970;9.068;2023-02-15T19:27:53;2.00;99.90
4874;DHT22;2451;49.970;9.068;2023-02-15T19:30:23;2.00;99.90
4874;DHT22;2451;49.970;9.068;2023-02-15T19:32:49;2.00;99.90
4874;DHT22;2451;49.970;9.068;2023-02-15T19:35:17;2.00;99.90